Aérodrome :
LOGIN :

S'inscrire | Disclaimer

   EN    FR    IT 

 










Légende :    VFR   VFR Marginal   IFR   IFR Intensif   IFR Très Intensif
Visi : 
Plafond : 
>= 8 km
>= 3000ft
5 à 8 km
1000 à 3000 ft
1500m à 5 km
500 à 1000 ft
800 à 1500m
200 à 500 ft
< 800m
< 200 ft
Symboles :   Orages  Brouillard  Fortes neiges  Fortes précipitations  Vent > 20 kt
SIGMETs :   Divers  Orages  Givrage  Turbulence  Onde Orograph.  Cendres Volcan.







- Altitude de l'aérodrome : 885 ft
- Code IATA : BAS
- Voir les cartes d'approche


LFSB - Bale-Mulhouse

DERNIER METAR :
  • 271300Z 31009KT 250V340 9999 FEW046 BKN080 BKN250 21/12 Q1010 NOSIG

METARs EXPIRÉS :
  • 271230Z 29008KT 260V320 9999 FEW040 BKN080 BKN250 21/12 Q1011 NOSIG
  • 271200Z 25008KT 220V280 9999 FEW040 BKN080 BKN250 21/12 Q1011 NOSIG
  • 271130Z 27008KT 220V320 9999 FEW033 BKN073 BKN220 21/13 Q1011 NOSIG
  • 271100Z 27008KT 240V310 9999 FEW033 BKN073 19/12 Q1011 NOSIG
  • 271030Z 25010KT 220V280 9999 FEW033 BKN073 BKN250 19/13 Q1011 NOSIG

TAF AMD TAF LFSB
Valide du 27 à 12h jusqu'au 28 à 12h UTC


271157Z 2712/2812 27008KT 9999 FEW040 BKN070
TEMPO 2720/2724 -SHRA FEW040TCU
TEMPO 2800/2808 4000 RA BKN010 SCT020TCU
TEMPO 2810/2812 28015G25KT 4000 SHRA SCT030TCU
Météo : +33 3 89 90 31 11
Pas de NOTAMs connus pour ce terrain.



MET'MAP, la Météo Aéronautique d'un coup d'oeil ! - Copyright ORBIFLY Décembre 2007 - Disclaimer

ORBIFLY MET'MAP TEAM :

Programmation & Développement : Alexandra Zaïnal
Conception & Développement : Baudouin d'Aumeries
Co-Programmation & Développement : Marc-Olivier Méhu
Soutien technique & logistique : Manuel Goepfert

Contact : metmap@orbifly.com




SOURCES & CREDITS :

   NOAA